Time;durP1;ratioP1;P1;durP2;ratioP2;P2;SDS_P1;SDS_P2;PMS_P1;PMS_P2;Temp;Humidity;BMP_temperature;BMP_pressure;BME280_temperature;BME280_humidity;BME280_pressure;Samples;Min_cycle;Max_cycle;Signal;HPM_P1;HPM_P2
2023/01/05 00:01:51;;;;;;;3.22;0.77;;;10.10;99.90;;;;;;5014877;28;20030;-60
2023/01/05 00:04:17;;;;;;;0.75;0.60;;;10.10;99.90;;;;;;5013122;28;20141;-60
2023/01/05 00:06:43;;;;;;;0.93;0.60;;;10.10;99.90;;;;;;5012396;28;20116;-60
2023/01/05 00:09:12;;;;;;;0.50;0.50;;;10.10;99.90;;;;;;5014380;28;20038;-61
2023/01/05 00:22:55;;;;;;;0.70;0.70;;;10.10;99.90;;;;;;5010881;28;20037;-60
2023/01/05 00:25:32;;;;;;;1.40;0.60;;;10.10;99.90;;;;;;5005025;28;20037;-61
2023/01/05 00:27:58;;;;;;;0.85;0.63;;;10.00;99.90;;;;;;5004363;28;20024;-60
2023/01/05 00:30:31;;;;;;;5.35;0.65;;;10.00;99.90;;;;;;5010428;28;20025;-62
2023/01/05 00:32:57;;;;;;;1.75;0.90;;;10.00;99.90;;;;;;5026725;28;20025;-61
2023/01/05 00:35:22;;;;;;;2.42;0.70;;;9.90;99.90;;;;;;5016467;28;20037;-62
2023/01/05 00:37:49;;;;;;;0.80;0.70;;;9.80;99.90;;;;;;5006789;28;20033;-61
2023/01/05 00:40:17;;;;;;;1.75;0.82;;;9.70;99.90;;;;;;5014105;28;20041;-60
2023/01/05 00:42:43;;;;;;;1.15;1.00;;;9.60;99.90;;;;;;5015818;28;20174;-60
2023/01/05 00:45:12;;;;;;;1.00;1.00;;;9.70;99.90;;;;;;5012857;28;20128;-61
2023/01/05 00:47:38;;;;;;;1.75;1.02;;;9.70;99.90;;;;;;5013529;28;20397;-60
2023/01/05 00:50:05;;;;;;;2.10;0.80;;;9.80;99.90;;;;;;5012579;28;20057;-60
2023/01/05 00:52:30;;;;;;;1.05;0.70;;;9.70;99.90;;;;;;5011296;28;20041;-60
2023/01/05 00:54:56;;;;;;;1.00;0.82;;;9.80;99.90;;;;;;5012838;28;20022;-61
2023/01/05 00:57:21;;;;;;;0.88;0.77;;;9.80;99.90;;;;;;5012704;28;20391;-60
2023/01/05 00:59:47;;;;;;;1.80;0.75;;;9.80;99.90;;;;;;5011062;28;20066;-60
2023/01/05 01:02:13;;;;;;;0.75;0.75;;;9.80;99.90;;;;;;5015838;28;20331;-59
2023/01/05 01:04:39;;;;;;;0.73;0.70;;;9.90;99.90;;;;;;5010964;28;20486;-61
2023/01/05 01:07:05;;;;;;;0.88;0.88;;;10.00;99.90;;;;;;5005647;28;20030;-60
2023/01/05 01:09:31;;;;;;;0.68;0.68;;;10.00;99.90;;;;;;5007039;28;20029;-60
2023/01/05 01:11:56;;;;;;;1.27;0.68;;;10.00;99.90;;;;;;5005889;28;20125;-60
2023/01/05 01:14:22;;;;;;;0.80;0.80;;;10.00;99.90;;;;;;5016218;28;20168;-61
2023/01/05 01:16:48;;;;;;;1.00;0.90;;;10.00;99.90;;;;;;5011846;28;20023;-62
2023/01/05 01:19:16;;;;;;;1.00;0.85;;;9.90;99.90;;;;;;5010952;28;20030;-60
2023/01/05 01:21:42;;;;;;;1.23;0.68;;;9.80;99.90;;;;;;5004733;28;20547;-61
2023/01/05 01:24:14;;;;;;;0.70;0.70;;;9.80;99.90;;;;;;5007773;28;20042;-60
2023/01/05 01:26:39;;;;;;;0.80;0.80;;;9.70;99.90;;;;;;5008251;28;20026;-60
2023/01/05 01:29:05;;;;;;;1.50;0.80;;;9.70;99.90;;;;;;5014363;28;20041;-60
2023/01/05 01:31:30;;;;;;;1.85;1.10;;;9.60;99.90;;;;;;5013204;28;20095;-59
2023/01/05 01:33:56;;;;;;;1.00;0.90;;;9.60;99.90;;;;;;5013869;28;20092;-59
2023/01/05 01:36:22;;;;;;;1.08;0.60;;;9.70;99.90;;;;;;5016402;28;20097;-61
2023/01/05 01:38:47;;;;;;;0.75;0.60;;;9.70;99.90;;;;;;5004912;28;20505;-61
2023/01/05 01:41:13;;;;;;;0.40;0.40;;;9.70;99.90;;;;;;5005045;28;20144;-60
2023/01/05 01:43:56;;;;;;;0.50;0.50;;;9.60;99.90;;;;;;5018385;28;20032;-59
2023/01/05 01:46:23;;;;;;;0.50;0.50;;;9.60;99.90;;;;;;5016753;28;20099;-63
2023/01/05 01:49:00;;;;;;;0.73;0.73;;;9.70;99.90;;;;;;5012065;28;20026;-60
2023/01/05 01:51:40;;;;;;;0.50;0.50;;;9.60;99.90;;;;;;5016470;28;20065;-61
2023/01/05 01:54:09;;;;;;;0.60;0.60;;;9.60;99.90;;;;;;5010900;28;20026;-63
2023/01/05 01:56:41;;;;;;;0.47;0.47;;;9.60;99.90;;;;;;5011556;28;20673;-60
2023/01/05 01:59:07;;;;;;;0.50;0.50;;;9.70;99.90;;;;;;5012629;28;20108;-61
2023/01/05 02:01:33;;;;;;;0.40;0.40;;;9.70;99.90;;;;;;5007984;28;20529;-64
2023/01/05 02:04:00;;;;;;;0.50;0.50;;;9.70;99.90;;;;;;5006568;28;20029;-61
2023/01/05 02:06:25;;;;;;;0.40;0.40;;;9.70;99.90;;;;;;5003287;28;20540;-62
2023/01/05 02:08:51;;;;;;;0.47;0.40;;;9.70;99.90;;;;;;5017791;28;20037;-62
2023/01/05 02:11:35;;;;;;;0.40;0.40;;;9.70;99.90;;;;;;5010370;28;20030;-60
2023/01/05 02:14:19;;;;;;;0.40;0.40;;;9.70;99.90;;;;;;5006596;28;20481;-60
2023/01/05 02:17:09;;;;;;;0.70;0.60;;;9.70;99.90;;;;;;5018093;28;20034;-61
2023/01/05 02:20:25;;;;;;;0.45;0.45;;;9.70;99.90;;;;;;5013550;28;20045;-61
2023/01/05 02:23:28;;;;;;;0.50;0.50;;;9.70;99.90;;;;;;4974505;28;20092;-62
2023/01/05 02:25:59;;;;;;;0.50;0.50;;;9.70;99.90;;;;;;5006854;28;20080;-62
2023/01/05 02:28:28;;;;;;;0.50;0.50;;;9.70;99.90;;;;;;5005324;28;20021;-62
2023/01/05 02:31:16;;;;;;;0.40;0.40;;;9.60;99.90;;;;;;5012753;28;20262;-62
2023/01/05 02:34:06;;;;;;;0.40;0.40;;;9.70;99.90;;;;;;5010148;28;20119;-59
2023/01/05 02:36:52;;;;;;;0.38;0.38;;;9.70;99.90;;;;;;5014055;28;20034;-61
2023/01/05 02:39:41;;;;;;;0.50;0.40;;;9.70;99.90;;;;;;5012695;28;20540;-61
2023/01/05 02:42:17;;;;;;;0.30;0.30;;;9.70;99.90;;;;;;5011832;28;20034;-60
2023/01/05 02:44:43;;;;;;;0.40;0.40;;;9.70;99.90;;;;;;5009308;28;20492;-60
2023/01/05 02:47:24;;;;;;;0.40;0.40;;;9.60;99.90;;;;;;5007937;28;20513;-61
2023/01/05 02:49:57;;;;;;;0.40;0.30;;;9.60;99.90;;;;;;5008040;28;20401;-61
2023/01/05 02:52:23;;;;;;;1.13;0.52;;;9.60;99.90;;;;;;5006643;28;20021;-61
2023/01/05 02:55:01;;;;;;;0.40;0.40;;;9.60;99.90;;;;;;5008199;28;20026;-60
2023/01/05 02:57:49;;;;;;;0.32;0.32;;;9.60;99.90;;;;;;5013478;28;20022;-61
2023/01/05 03:00:39;;;;;;;0.47;0.47;;;9.60;99.90;;;;;;5009576;28;20022;-59
2023/01/05 03:03:11;;;;;;;0.40;0.40;;;9.60;99.90;;;;;;5002481;28;20018;-61
2023/01/05 03:05:47;;;;;;;0.45;0.45;;;9.60;99.90;;;;;;5009103;28;20540;-63
2023/01/05 03:08:21;;;;;;;0.50;0.50;;;9.70;99.90;;;;;;5017385;28;20021;-63
2023/01/05 03:13:52;;;;;;;2.50;0.57;;;9.70;99.90;;;;;;5022419;28;20036;-60
2023/01/05 03:16:23;;;;;;;0.95;0.40;;;9.70;99.90;;;;;;5019451;28;20843;-61
2023/01/05 03:35:37;;;;;;;2.15;0.40;;;9.90;99.90;;;;;;5014402;28;20056;-61
2023/01/05 03:38:33;;;;;;;0.50;0.30;;;10.00;99.90;;;;;;5010566;28;20018;-61
2023/01/05 03:41:03;;;;;;;0.73;0.30;;;10.00;99.90;;;;;;5010545;28;20021;-61
2023/01/05 03:43:33;;;;;;;0.85;0.30;;;10.10;99.90;;;;;;5010086;28;20034;-61
2023/01/05 03:45:59;;;;;;;0.98;0.40;;;10.10;99.90;;;;;;5016852;28;20025;-62
2023/01/05 03:48:27;;;;;;;0.30;0.30;;;10.10;99.90;;;;;;5019496;28;20029;-62
2023/01/05 03:50:53;;;;;;;1.30;0.47;;;10.10;99.90;;;;;;5018571;28;20096;-64
2023/01/05 03:53:18;;;;;;;0.32;0.30;;;10.20;99.90;;;;;;5016784;28;20026;-62
2023/01/05 03:55:44;;;;;;;0.30;0.30;;;10.30;99.90;;;;;;5011593;28;20486;-61
2023/01/05 03:58:10;;;;;;;0.35;0.35;;;10.30;99.90;;;;;;5009808;28;20033;-60
2023/01/05 04:00:36;;;;;;;0.30;0.30;;;10.30;99.90;;;;;;5006158;28;20014;-62
2023/01/05 04:03:01;;;;;;;0.73;0.40;;;10.20;99.90;;;;;;5009524;28;20041;-62
2023/01/05 04:05:27;;;;;;;0.40;0.20;;;10.20;99.90;;;;;;5001479;28;20034;-62
2023/01/05 04:07:53;;;;;;;1.08;0.50;;;10.10;99.90;;;;;;5012895;28;20061;-61
2023/01/05 04:10:18;;;;;;;0.95;0.50;;;10.00;99.90;;;;;;5010599;28;20034;-62
2023/01/05 04:12:46;;;;;;;0.85;0.43;;;9.90;99.90;;;;;;5008864;28;20018;-60
2023/01/05 04:15:12;;;;;;;0.80;0.45;;;9.80;99.90;;;;;;5007688;28;20031;-61
2023/01/05 04:17:38;;;;;;;3.97;0.90;;;9.70;99.90;;;;;;5008103;28;20031;-61
2023/01/05 04:20:04;;;;;;;1.45;1.35;;;9.60;99.90;;;;;;5009626;28;20061;-63
2023/01/05 04:22:31;;;;;;;3.25;1.88;;;9.50;99.90;;;;;;5014865;28;20067;-60
2023/01/05 04:24:56;;;;;;;1.85;0.55;;;9.50;99.90;;;;;;5016690;28;20034;-61
2023/01/05 04:27:22;;;;;;;1.60;0.63;;;9.40;99.90;;;;;;5014206;28;20403;-62
2023/01/05 04:29:48;;;;;;;2.15;1.05;;;9.40;99.90;;;;;;5006740;28;20049;-62
2023/01/05 04:32:13;;;;;;;5.03;0.93;;;9.30;99.90;;;;;;5005650;28;20217;-61
2023/01/05 04:34:39;;;;;;;1.52;0.50;;;9.30;99.90;;;;;;5009652;28;20033;-61
2023/01/05 04:37:04;;;;;;;8.30;0.80;;;9.30;99.90;;;;;;5015586;28;20037;-60
2023/01/05 04:39:30;;;;;;;2.28;0.55;;;9.30;99.90;;;;;;5014334;28;20593;-62
2023/01/05 04:41:56;;;;;;;6.20;0.60;;;9.30;99.90;;;;;;5012327;28;20060;-61
2023/01/05 04:44:21;;;;;;;7.30;1.00;;;9.30;99.90;;;;;;5009840;28;20040;-61
2023/01/05 04:46:47;;;;;;;3.63;0.80;;;9.20;99.90;;;;;;5014932;28;20030;-60
2023/01/05 04:49:13;;;;;;;2.70;0.70;;;9.10;99.90;;;;;;5016172;28;20431;-61
2023/01/05 04:51:38;;;;;;;4.55;0.70;;;9.10;99.90;;;;;;5022223;28;20030;-63
2023/01/05 04:54:04;;;;;;;4.60;0.88;;;9.10;99.90;;;;;;5008887;28;20026;-61
2023/01/05 04:56:29;;;;;;;2.47;0.77;;;9.10;99.90;;;;;;5007084;28;20027;-62
2023/01/05 04:58:55;;;;;;;7.00;0.80;;;9.10;99.90;;;;;;5010479;28;20385;-61
2023/01/05 05:01:21;;;;;;;5.75;1.35;;;9.10;99.90;;;;;;5017240;28;20034;-62
2023/01/05 05:03:46;;;;;;;4.70;0.80;;;9.10;99.90;;;;;;5018423;28;20026;-61
2023/01/05 05:06:12;;;;;;;3.97;1.00;;;9.20;99.90;;;;;;5006907;28;20034;-63
2023/01/05 05:08:38;;;;;;;5.28;1.10;;;9.20;99.90;;;;;;5005510;28;20055;-64
2023/01/05 05:11:04;;;;;;;9.98;1.80;;;9.20;99.90;;;;;;5010183;28;20026;-61
2023/01/05 05:13:30;;;;;;;3.78;0.90;;;9.20;99.90;;;;;;5011704;28;20025;-61
2023/01/05 05:15:55;;;;;;;6.72;1.00;;;9.20;99.90;;;;;;5006618;28;20041;-62
2023/01/05 05:18:21;;;;;;;3.35;0.95;;;9.20;99.90;;;;;;5003893;28;20035;-61
2023/01/05 05:20:51;;;;;;;5.85;1.10;;;9.20;99.90;;;;;;5003452;28;20026;-61
2023/01/05 05:23:17;;;;;;;4.10;0.90;;;9.10;99.90;;;;;;5008850;28;20038;-61
2023/01/05 05:25:43;;;;;;;5.28;0.80;;;9.10;99.90;;;;;;5015197;28;20030;-59
2023/01/05 05:28:09;;;;;;;6.57;1.10;;;9.00;99.90;;;;;;5019072;28;20132;-59
2023/01/05 05:30:37;;;;;;;3.60;0.90;;;9.00;99.90;;;;;;5012407;28;20030;-60
2023/01/05 05:33:02;;;;;;;2.63;0.82;;;8.90;99.90;;;;;;5013891;28;20522;-59
2023/01/05 05:35:28;;;;;;;3.08;0.80;;;8.90;99.90;;;;;;5014822;28;20033;-60
2023/01/05 05:37:54;;;;;;;4.50;1.00;;;8.80;99.90;;;;;;5013283;28;20097;-59
2023/01/05 05:40:19;;;;;;;6.20;1.00;;;8.80;99.90;;;;;;5008639;28;20117;-60
2023/01/05 05:42:45;;;;;;;5.82;0.90;;;8.70;99.90;;;;;;5009848;28;20036;-59
2023/01/05 05:45:11;;;;;;;4.85;1.00;;;8.70;99.90;;;;;;5011925;28;20390;-60
2023/01/05 05:47:36;;;;;;;5.07;1.27;;;8.60;99.90;;;;;;5004934;28;20065;-58
2023/01/05 05:50:02;;;;;;;5.15;1.05;;;8.60;99.90;;;;;;5011976;28;20711;-60
2023/01/05 05:52:28;;;;;;;5.47;1.02;;;8.50;99.90;;;;;;5010279;28;20030;-60
2023/01/05 05:54:54;;;;;;;5.85;1.00;;;8.40;99.90;;;;;;5009026;28;20453;-59
2023/01/05 05:57:19;;;;;;;4.53;0.95;;;8.40;99.90;;;;;;5014700;28;20040;-60
2023/01/05 05:59:45;;;;;;;8.23;1.65;;;8.40;99.90;;;;;;5015146;28;20110;-60
2023/01/05 06:02:10;;;;;;;6.18;0.80;;;8.30;99.90;;;;;;5010862;28;20026;-60
2023/01/05 06:04:36;;;;;;;4.57;1.10;;;8.40;99.90;;;;;;5015265;28;20049;-62
2023/01/05 06:07:02;;;;;;;7.32;1.27;;;8.40;99.90;;;;;;5018312;28;20026;-61
2023/01/05 06:09:27;;;;;;;5.75;1.02;;;8.40;99.90;;;;;;5017755;28;20069;-63
2023/01/05 06:11:53;;;;;;;5.63;1.15;;;8.50;99.90;;;;;;5006150;28;20022;-61
2023/01/05 06:14:19;;;;;;;4.25;1.08;;;8.50;99.90;;;;;;4999978;28;20026;-62
2023/01/05 06:16:44;;;;;;;8.98;1.60;;;8.50;99.90;;;;;;5016456;28;20023;-62
2023/01/05 06:19:10;;;;;;;9.30;2.92;;;8.60;99.90;;;;;;5017591;28;20018;-62
2023/01/05 06:21:36;;;;;;;4.60;2.42;;;8.60;99.90;;;;;;5009610;28;20068;-62
2023/01/05 06:24:02;;;;;;;5.93;1.80;;;8.70;99.90;;;;;;5011168;28;20034;-61
2023/01/05 06:26:28;;;;;;;7.47;1.70;;;8.90;99.90;;;;;;5008971;28;20088;-63
2023/01/05 06:28:53;;;;;;;9.15;6.00;;;9.00;99.90;;;;;;5006020;28;20031;-63
2023/01/05 06:31:19;;;;;;;7.22;3.45;;;9.10;99.90;;;;;;5002868;28;20026;-61
2023/01/05 06:33:45;;;;;;;8.05;3.58;;;9.10;99.90;;;;;;5009160;28;20075;-62
2023/01/05 06:36:10;;;;;;;9.57;3.63;;;9.20;99.90;;;;;;5008478;28;20176;-62
2023/01/05 06:38:36;;;;;;;6.65;2.22;;;9.20;99.90;;;;;;5017000;28;20316;-63
2023/01/05 06:41:01;;;;;;;6.82;1.55;;;9.30;99.90;;;;;;5014440;28;20026;-61
2023/01/05 06:43:27;;;;;;;4.53;1.35;;;9.30;99.90;;;;;;5003406;28;20109;-60
2023/01/05 06:45:53;;;;;;;9.43;1.65;;;9.30;99.90;;;;;;5016545;28;20006;-64
2023/01/05 06:48:18;;;;;;;7.82;1.90;;;9.30;99.90;;;;;;5019744;28;20036;-59
2023/01/05 06:50:44;;;;;;;6.85;1.55;;;9.40;99.90;;;;;;5009555;28;20124;-59
2023/01/05 06:53:10;;;;;;;8.75;1.10;;;9.40;99.90;;;;;;5009660;28;20034;-62
2023/01/05 06:55:35;;;;;;;8.10;1.48;;;9.40;99.90;;;;;;5008487;28;20033;-63
2023/01/05 06:58:01;;;;;;;5.90;1.08;;;9.40;99.90;;;;;;5005426;28;20029;-61
2023/01/05 07:00:27;;;;;;;4.63;1.60;;;9.40;99.90;;;;;;5005268;28;20038;-61
2023/01/05 07:02:53;;;;;;;10.75;2.05;;;9.40;99.90;;;;;;5018338;28;20389;-61
2023/01/05 07:05:18;;;;;;;3.75;1.10;;;9.40;99.90;;;;;;5011492;28;20026;-62
2023/01/05 07:07:44;;;;;;;3.92;1.10;;;9.40;99.90;;;;;;5011909;28;20045;-62
2023/01/05 07:10:09;;;;;;;4.85;1.08;;;9.40;99.90;;;;;;5012920;28;20033;-60
2023/01/05 07:12:35;;;;;;;4.95;1.38;;;9.40;99.90;;;;;;5011836;28;20042;-62
2023/01/05 07:15:01;;;;;;;3.65;1.00;;;9.40;99.90;;;;;;5009592;28;20026;-63
2023/01/05 07:17:26;;;;;;;7.28;1.92;;;9.30;99.90;;;;;;5020827;28;20057;-59
2023/01/05 07:19:52;;;;;;;5.95;1.30;;;9.30;99.90;;;;;;5016537;28;20029;-65
2023/01/05 07:22:18;;;;;;;7.85;1.63;;;9.30;99.90;;;;;;5015911;28;20030;-58
2023/01/05 07:24:43;;;;;;;4.93;1.10;;;9.30;99.90;;;;;;5014931;28;20486;-60
2023/01/05 07:27:09;;;;;;;5.72;1.25;;;9.30;99.90;;;;;;5011783;28;20030;-62
2023/01/05 07:29:35;;;;;;;7.43;1.40;;;9.20;99.90;;;;;;5008602;28;20035;-63
2023/01/05 07:32:00;;;;;;;13.45;2.17;;;9.20;99.90;;;;;;5015277;28;20032;-63
2023/01/05 07:34:26;;;;;;;4.50;1.40;;;9.20;99.90;;;;;;5012302;28;20543;-62
2023/01/05 07:36:51;;;;;;;5.18;1.17;;;9.20;99.90;;;;;;5011884;28;20494;-61
2023/01/05 07:39:18;;;;;;;7.00;1.23;;;9.20;99.90;;;;;;5014321;28;20038;-63
2023/01/05 07:41:44;;;;;;;5.90;1.27;;;9.20;99.90;;;;;;5013878;28;20034;-62
2023/01/05 07:44:10;;;;;;;7.00;1.95;;;9.20;99.90;;;;;;5010894;28;20029;-61
2023/01/05 07:46:35;;;;;;;6.78;1.30;;;9.20;99.90;;;;;;5021285;28;20029;-63
2023/01/05 07:49:01;;;;;;;9.18;1.20;;;9.30;99.90;;;;;;5013828;28;20048;-61
2023/01/05 07:51:27;;;;;;;4.50;1.25;;;9.20;99.90;;;;;;5013070;28;20080;-58
2023/01/05 07:53:54;;;;;;;10.70;1.15;;;9.20;99.90;;;;;;5015826;28;20049;-59
2023/01/05 07:56:20;;;;;;;8.48;1.35;;;9.30;99.90;;;;;;5014782;28;20064;-62
2023/01/05 07:58:46;;;;;;;6.63;1.50;;;9.30;99.90;;;;;;5006891;28;20052;-63
2023/01/05 08:01:14;;;;;;;13.48;1.40;;;9.30;99.90;;;;;;5007439;28;20029;-59
2023/01/05 08:03:40;;;;;;;12.95;1.33;;;9.30;99.90;;;;;;5009871;28;20025;-59
2023/01/05 08:06:09;;;;;;;8.63;1.65;;;9.30;99.90;;;;;;5011264;28;20014;-59
2023/01/05 08:08:35;;;;;;;5.55;1.17;;;9.40;99.90;;;;;;5010783;28;20040;-60
2023/01/05 08:11:03;;;;;;;8.02;1.30;;;9.40;99.90;;;;;;5006833;28;20030;-62
2023/01/05 08:16:13;;;;;;;8.93;1.55;;;9.40;99.90;;;;;;5009509;28;20436;-62
2023/01/05 08:18:39;;;;;;;8.32;1.20;;;9.50;99.90;;;;;;5025532;28;20018;-62
2023/01/05 08:21:07;;;;;;;6.93;1.63;;;9.50;99.90;;;;;;5015925;28;20057;-62
2023/01/05 08:23:33;;;;;;;6.97;1.30;;;9.50;99.90;;;;;;5017486;28;20033;-64
2023/01/05 08:26:08;;;;;;;7.95;1.40;;;9.50;99.90;;;;;;5019783;28;20494;-62
2023/01/05 08:28:35;;;;;;;9.35;1.38;;;9.50;99.90;;;;;;5010894;28;20555;-61
2023/01/05 08:31:12;;;;;;;6.03;1.27;;;9.50;99.90;;;;;;5015761;28;20106;-62
2023/01/05 08:33:38;;;;;;;10.00;1.92;;;9.50;99.90;;;;;;5010546;28;20040;-62
2023/01/05 08:36:12;;;;;;;7.68;1.60;;;9.50;99.90;;;;;;5010414;28;20022;-62
2023/01/05 08:38:38;;;;;;;5.32;1.60;;;9.50;99.90;;;;;;5009260;28;20065;-62
2023/01/05 08:41:04;;;;;;;10.57;1.63;;;9.50;99.90;;;;;;5018510;28;20053;-62
2023/01/05 08:43:30;;;;;;;12.00;1.85;;;9.50;99.90;;;;;;5014135;28;21433;-63
2023/01/05 08:45:56;;;;;;;8.18;1.30;;;9.40;99.90;;;;;;5014284;28;20450;-63
2023/01/05 08:48:21;;;;;;;7.50;2.15;;;9.40;99.90;;;;;;5022106;28;20116;-63
2023/01/05 08:50:47;;;;;;;8.30;1.52;;;9.40;99.90;;;;;;5014597;28;20057;-62
2023/01/05 08:53:13;;;;;;;6.40;1.60;;;9.40;99.90;;;;;;5010806;28;20038;-62
2023/01/05 08:55:38;;;;;;;7.95;1.27;;;9.40;99.90;;;;;;5008512;28;20041;-62
2023/01/05 08:58:07;;;;;;;8.00;1.83;;;9.40;99.90;;;;;;5012458;28;20062;-61
2023/01/05 09:00:33;;;;;;;6.63;1.90;;;9.30;99.90;;;;;;5013731;28;20040;-62
2023/01/05 09:02:59;;;;;;;7.00;1.30;;;9.30;99.90;;;;;;5013811;28;20515;-62
2023/01/05 09:05:25;;;;;;;8.05;1.80;;;9.30;99.90;;;;;;5010999;28;20033;-61
2023/01/05 09:07:51;;;;;;;5.75;2.40;;;9.30;99.90;;;;;;5012330;28;20029;-61
2023/01/05 09:10:16;;;;;;;9.20;1.85;;;9.30;99.90;;;;;;5016443;28;20040;-61
2023/01/05 09:12:42;;;;;;;14.93;2.45;;;9.30;99.90;;;;;;5017821;28;20417;-61
2023/01/05 09:15:08;;;;;;;8.85;2.03;;;9.30;99.90;;;;;;5010320;28;20901;-61
2023/01/05 09:17:37;;;;;;;7.47;1.83;;;9.40;99.90;;;;;;5004398;28;20046;-61
2023/01/05 09:20:03;;;;;;;7.10;2.00;;;9.40;99.90;;;;;;5011527;28;20087;-60
2023/01/05 09:22:31;;;;;;;8.75;1.98;;;9.40;99.90;;;;;;5008308;28;20101;-63
2023/01/05 09:24:56;;;;;;;10.18;1.75;;;9.50;99.90;;;;;;5012100;28;20486;-60
2023/01/05 09:27:22;;;;;;;7.47;2.08;;;9.50;99.90;;;;;;5012305;28;20044;-61
2023/01/05 09:29:47;;;;;;;16.48;2.42;;;9.50;99.90;;;;;;5013666;28;20044;-64
2023/01/05 09:32:13;;;;;;;8.95;1.67;;;9.50;99.90;;;;;;5010612;28;20034;-63
2023/01/05 09:34:39;;;;;;;13.63;2.70;;;9.50;99.90;;;;;;5010761;28;20489;-61
2023/01/05 09:37:04;;;;;;;10.88;2.25;;;9.50;99.90;;;;;;5000158;28;20022;-61
2023/01/05 09:39:30;;;;;;;10.70;2.10;;;9.50;99.90;;;;;;5003656;28;20038;-63
2023/01/05 09:41:59;;;;;;;14.02;1.95;;;9.50;99.90;;;;;;5007620;28;20034;-62
2023/01/05 09:44:36;;;;;;;4.97;1.33;;;9.60;99.90;;;;;;5012443;28;20087;-63
2023/01/05 09:47:14;;;;;;;9.13;1.80;;;9.60;99.90;;;;;;5010609;28;20533;-62
2023/01/05 09:49:40;;;;;;;9.57;1.67;;;9.60;99.90;;;;;;5003882;28;20099;-62
2023/01/05 09:52:09;;;;;;;11.45;1.92;;;9.60;99.90;;;;;;5004108;28;20030;-63
2023/01/05 09:54:37;;;;;;;7.95;1.58;;;9.60;99.90;;;;;;5004144;28;20532;-61
2023/01/05 09:57:04;;;;;;;8.80;1.92;;;9.50;99.90;;;;;;5009118;28;20033;-65
2023/01/05 09:59:37;;;;;;;7.10;2.15;;;9.40;99.90;;;;;;5010823;28;20106;-62
2023/01/05 10:02:13;;;;;;;10.95;2.63;;;9.30;99.90;;;;;;5010845;28;20084;-63
2023/01/05 10:04:39;;;;;;;8.57;1.40;;;9.30;99.90;;;;;;5017490;28;20025;-62
2023/01/05 10:07:13;;;;;;;9.30;1.70;;;9.30;99.90;;;;;;5011368;28;20089;-61
2023/01/05 10:09:39;;;;;;;9.18;1.90;;;9.50;99.90;;;;;;5009485;28;20033;-61
2023/01/05 10:15:06;;;;;;;8.55;1.80;;;9.60;99.90;;;;;;5010119;28;20045;-63
2023/01/05 10:17:38;;;;;;;13.10;1.70;;;9.60;99.90;;;;;;5007839;28;20033;-59
2023/01/05 10:20:37;;;;;;;10.13;1.90;;;9.60;99.90;;;;;;5009867;28;20708;-59
2023/01/05 10:23:17;;;;;;;7.63;1.70;;;9.60;99.90;;;;;;5002217;28;20030;-62
2023/01/05 10:25:53;;;;;;;11.43;1.98;;;9.70;99.90;;;;;;5014869;28;20172;-62
2023/01/05 10:28:28;;;;;;;6.85;1.98;;;9.80;99.90;;;;;;5016500;28;20017;-61
2023/01/05 10:31:01;;;;;;;5.75;1.30;;;10.10;99.90;;;;;;5016442;28;20022;-60
2023/01/05 10:33:52;;;;;;;8.65;1.67;;;10.60;99.90;;;;;;5011678;28;20030;-60
2023/01/05 10:36:36;;;;;;;8.30;1.67;;;11.00;99.90;;;;;;5003764;28;20506;-61
2023/01/05 10:39:10;;;;;;;6.57;1.45;;;11.30;99.90;;;;;;5015117;28;20533;-60
2023/01/05 10:41:36;;;;;;;9.20;1.83;;;11.10;99.90;;;;;;5011550;28;20038;-59
2023/01/05 10:44:20;;;;;;;6.68;1.40;;;11.00;99.90;;;;;;5012423;28;20051;-59
2023/01/05 10:46:48;;;;;;;9.18;1.65;;;10.90;99.90;;;;;;4995569;28;20080;-61
2023/01/05 10:49:27;;;;;;;8.52;1.85;;;10.90;99.90;;;;;;5009063;28;20052;-60
2023/01/05 10:51:54;;;;;;;5.45;1.48;;;10.90;99.90;;;;;;5007462;28;20037;-60
2023/01/05 10:55:06;;;;;;;11.82;2.22;;;11.00;99.90;;;;;;5002022;28;20556;-60
2023/01/05 10:57:35;;;;;;;6.57;1.25;;;11.00;99.90;;;;;;4965323;28;20027;-61
2023/01/05 11:00:00;;;;;;;6.32;1.70;;;10.80;99.90;;;;;;5001826;28;20022;-62
2023/01/05 11:02:29;;;;;;;8.90;1.92;;;10.70;99.90;;;;;;5007687;28;20045;-59
2023/01/05 11:05:11;;;;;;;9.63;1.55;;;10.60;99.90;;;;;;5007268;28;20064;-60
2023/01/05 11:07:55;;;;;;;7.15;2.08;;;10.40;99.90;;;;;;5010043;28;20441;-59
2023/01/05 11:10:39;;;;;;;8.55;2.40;;;10.30;99.90;;;;;;5010860;28;20037;-60
2023/01/05 11:13:26;;;;;;;8.23;1.30;;;10.30;99.90;;;;;;5008932;28;20496;-60
2023/01/05 11:16:19;;;;;;;8.68;1.55;;;10.30;99.90;;;;;;4997819;28;20034;-60
2023/01/05 11:18:56;;;;;;;4.65;1.73;;;10.30;99.90;;;;;;5012436;28;20089;-60
2023/01/05 11:21:27;;;;;;;8.15;1.52;;;10.20;99.90;;;;;;5002492;28;20558;-61
2023/01/05 11:23:58;;;;;;;4.65;1.10;;;10.10;99.90;;;;;;5006419;28;20046;-59
2023/01/05 11:26:23;;;;;;;7.43;1.92;;;10.10;99.90;;;;;;5015982;28;20037;-60
2023/01/05 11:29:01;;;;;;;13.40;2.58;;;10.00;99.90;;;;;;5019060;28;20058;-60
2023/01/05 11:31:35;;;;;;;6.10;1.42;;;9.90;99.90;;;;;;5017661;28;20387;-60
2023/01/05 11:34:27;;;;;;;11.00;1.70;;;9.90;99.90;;;;;;5013522;28;20611;-61
2023/01/05 11:36:58;;;;;;;10.55;1.90;;;10.10;99.90;;;;;;5005790;28;20050;-61
2023/01/05 11:39:28;;;;;;;6.30;1.90;;;10.30;99.90;;;;;;5017506;28;20164;-60
2023/01/05 11:42:08;;;;;;;5.35;1.67;;;10.40;99.90;;;;;;5019510;28;20027;-61
2023/01/05 11:44:34;;;;;;;7.78;1.45;;;10.50;99.90;;;;;;5015255;28;20408;-59
2023/01/05 11:47:00;;;;;;;5.97;1.20;;;10.60;99.90;;;;;;5013377;28;20030;-60
2023/01/05 11:49:26;;;;;;;4.35;0.93;;;10.70;99.90;;;;;;5012835;28;20021;-59
2023/01/05 11:51:51;;;;;;;6.72;1.38;;;10.70;99.90;;;;;;5015486;28;20030;-60
2023/01/05 11:54:32;;;;;;;5.45;1.40;;;10.70;99.90;;;;;;5014114;28;20037;-61
2023/01/05 11:57:13;;;;;;;6.10;1.95;;;10.70;99.90;;;;;;5016291;28;20374;-60
2023/01/05 11:59:39;;;;;;;5.13;1.83;;;10.70;99.90;;;;;;5014105;28;20083;-59
2023/01/05 12:02:38;;;;;;;8.23;1.63;;;10.90;99.90;;;;;;5016890;28;20105;-60
2023/01/05 12:05:43;;;;;;;6.70;1.17;;;11.20;99.90;;;;;;4990278;28;20638;-60
2023/01/05 12:08:16;;;;;;;7.95;2.45;;;11.50;99.90;;;;;;5005077;28;20036;-59
2023/01/05 12:10:54;;;;;;;4.03;1.73;;;11.60;99.90;;;;;;5003399;28;20038;-61
2023/01/05 12:13:39;;;;;;;9.30;2.22;;;11.60;99.90;;;;;;5010970;28;20030;-64
2023/01/05 12:16:11;;;;;;;8.68;1.50;;;11.80;99.90;;;;;;5016914;28;20030;-60
2023/01/05 12:19:14;;;;;;;5.53;1.25;;;11.90;99.90;;;;;;5016129;28;20026;-60
2023/01/05 12:21:59;;;;;;;5.00;1.33;;;11.70;99.90;;;;;;5018307;28;20045;-61
2023/01/05 12:24:43;;;;;;;4.82;1.38;;;11.70;99.90;;;;;;5011408;28;20042;-61
2023/01/05 12:27:33;;;;;;;9.15;1.70;;;12.00;99.90;;;;;;5006584;28;20082;-59
2023/01/05 12:30:31;;;;;;;5.20;1.30;;;12.20;99.90;;;;;;5004948;28;20025;-59
2023/01/05 12:33:30;;;;;;;7.32;1.20;;;12.00;99.90;;;;;;5003062;28;20022;-61
2023/01/05 12:36:01;;;;;;;8.70;1.52;;;11.70;99.90;;;;;;5005643;28;20630;-59
2023/01/05 12:38:47;;;;;;;4.13;1.30;;;11.40;99.90;;;;;;5008961;28;20030;-61
2023/01/05 12:41:36;;;;;;;6.32;1.42;;;11.30;99.90;;;;;;5005836;28;20038;-59
2023/01/05 12:44:26;;;;;;;4.05;1.08;;;11.20;99.90;;;;;;5003638;28;20032;-60
2023/01/05 12:47:06;;;;;;;5.32;1.50;;;11.30;99.90;;;;;;5012580;28;20032;-59
2023/01/05 12:49:41;;;;;;;8.15;1.60;;;11.40;99.90;;;;;;5013300;28;20467;-59
2023/01/05 12:52:15;;;;;;;5.63;2.05;;;11.30;99.90;;;;;;5014458;28;20045;-59
2023/01/05 12:54:58;;;;;;;7.90;1.20;;;11.40;99.90;;;;;;5014493;28;20501;-60
2023/01/05 12:57:52;;;;;;;4.65;1.60;;;11.40;99.90;;;;;;5013831;28;20037;-61
2023/01/05 13:00:20;;;;;;;3.72;1.00;;;11.40;99.90;;;;;;5008997;28;20027;-59
2023/01/05 13:03:00;;;;;;;10.23;1.63;;;11.50;99.90;;;;;;5008097;28;20042;-59
2023/01/05 13:06:00;;;;;;;4.40;1.27;;;11.70;99.90;;;;;;5013473;28;20038;-61
2023/01/05 13:08:50;;;;;;;6.07;1.23;;;11.90;99.90;;;;;;5010304;28;20118;-60
2023/01/05 13:11:34;;;;;;;6.93;2.00;;;12.10;99.90;;;;;;5005987;28;20109;-59
2023/01/05 13:14:18;;;;;;;5.28;1.65;;;11.90;99.90;;;;;;5008952;28;20161;-59
2023/01/05 13:17:21;;;;;;;8.00;1.50;;;11.60;99.90;;;;;;5011868;28;20033;-61
2023/01/05 13:19:53;;;;;;;6.43;1.55;;;11.50;99.90;;;;;;5013719;28;20025;-59
2023/01/05 13:22:27;;;;;;;5.28;1.42;;;11.30;99.90;;;;;;5016813;28;20034;-59
2023/01/05 13:25:06;;;;;;;4.60;1.42;;;11.20;99.90;;;;;;5015210;28;20181;-60
2023/01/05 13:27:31;;;;;;;5.55;1.30;;;11.00;99.90;;;;;;5011133;28;20434;-61
2023/01/05 13:30:00;;;;;;;3.60;1.33;;;10.80;99.90;;;;;;5010451;28;20042;-59
2023/01/05 13:32:55;;;;;;;5.90;1.40;;;10.40;99.90;;;;;;5009012;28;20050;-59
2023/01/05 13:35:30;;;;;;;4.53;1.42;;;10.10;99.90;;;;;;5017062;28;20157;-61
2023/01/05 13:38:04;;;;;;;6.18;1.58;;;10.10;99.90;;;;;;5005110;28;20033;-60
2023/01/05 13:40:30;;;;;;;4.45;1.60;;;10.20;99.90;;;;;;5008222;28;20061;-59
2023/01/05 13:43:20;;;;;;;8.02;1.30;;;10.40;99.90;;;;;;4998143;28;20069;-59
2023/01/05 13:46:25;;;;;;;5.53;1.45;;;10.40;99.90;;;;;;4973157;28;20040;-59
2023/01/05 13:49:26;;;;;;;4.20;1.45;;;10.40;99.90;;;;;;5006074;28;20512;-59
2023/01/05 13:51:53;;;;;;;7.90;2.47;;;10.20;99.90;;;;;;5005220;28;20034;-61